Time;durP1;ratioP1;P1;durP2;ratioP2;P2;SDS_P1;SDS_P2;PMS_P1;PMS_P2;Temp;Humidity;BMP_temperature;BMP_pressure;BME280_temperature;BME280_humidity;BME280_pressure;Samples;Min_cycle;Max_cycle;Signal;HPM_P1;HPM_P2
2020/12/10 00:02:02;;;;;;;3.58;3.25;;;;;;;7.45;75.50;98891.16;4333821;33;34937;-91
2020/12/10 00:04:30;;;;;;;1.77;1.30;;;;;;;7.65;74.57;98881.34;4333377;33;33120;-92
2020/12/10 00:06:57;;;;;;;1.15;1.12;;;;;;;7.59;74.84;98879.25;4334969;33;33232;-92
2020/12/10 00:09:24;;;;;;;3.28;2.08;;;;;;;7.72;74.46;98867.34;4333815;33;34540;-91
2020/12/10 00:11:51;;;;;;;2.33;2.20;;;;;;;7.80;74.13;98869.25;4321401;33;32841;-91
2020/12/10 00:14:18;;;;;;;2.70;2.50;;;;;;;7.80;73.99;98861.28;4321712;33;33120;-92
2020/12/10 00:16:55;;;;;;;3.08;2.67;;;;;;;7.78;73.97;98873.84;4321004;33;32865;-91
2020/12/10 00:19:22;;;;;;;1.50;1.35;;;;;;;7.82;73.92;98864.66;4332704;33;34700;-90
2020/12/10 00:21:55;;;;;;;1.98;1.87;;;;;;;7.60;74.34;98859.75;4332737;33;33406;-91
2020/12/10 00:24:23;;;;;;;1.10;1.08;;;;;;;7.51;74.77;98858.84;4309026;33;32817;-91
2020/12/10 00:27:03;;;;;;;3.87;2.05;;;;;;;7.50;75.02;98849.22;4333920;33;32945;-90
2020/12/10 00:29:31;;;;;;;1.25;0.95;;;;;;;7.53;75.12;98851.56;4333752;33;33352;-92
2020/12/10 00:31:59;;;;;;;2.12;1.70;;;;;;;7.54;74.57;98853.25;4345622;33;33562;-90
2020/12/10 00:34:26;;;;;;;1.40;1.30;;;;;;;7.41;75.37;98850.13;4320889;33;31632;-91
2020/12/10 00:36:53;;;;;;;3.97;2.20;;;;;;;7.41;75.01;98847.47;4333076;33;33484;-91
2020/12/10 00:39:20;;;;;;;1.70;1.60;;;;;;;7.44;74.73;98849.81;4333280;33;34846;-90
2020/12/10 00:41:52;;;;;;;3.50;3.20;;;;;;;7.34;75.40;98856.13;4333355;33;34388;-91
2020/12/10 00:44:21;;;;;;;2.55;2.30;;;;;;;7.15;75.92;98857.06;4333011;33;32115;-91
2020/12/10 00:46:48;;;;;;;2.35;1.85;;;;;;;7.26;75.71;98862.16;4333274;33;33571;-88
2020/12/10 00:49:15;;;;;;;2.45;2.25;;;;;;;7.28;75.38;98851.44;4344787;33;35720;-89
2020/12/10 00:51:46;;;;;;;8.98;1.87;;;;;;;7.13;76.15;98847.59;4332758;33;33067;-89
2020/12/10 00:54:14;;;;;;;0.77;0.73;;;;;;;7.17;75.61;98849.81;4332816;33;34170;-88
2020/12/10 00:56:43;;;;;;;3.10;2.80;;;;;;;7.13;75.90;98855.53;4309540;33;33551;-89
2020/12/10 00:59:11;;;;;;;3.00;1.85;;;;;;;6.87;77.56;98847.41;4333118;33;33157;-89
2020/12/10 01:01:41;;;;;;;2.20;2.03;;;;;;;6.97;77.26;98839.44;4332901;33;33016;-89
2020/12/10 01:04:09;;;;;;;3.08;1.55;;;;;;;7.34;75.42;98838.44;4332796;33;33092;-88
2020/12/10 01:06:55;;;;;;;2.35;2.25;;;;;;;7.03;76.98;98847.66;4299812;33;32175;-89
2020/12/10 01:09:22;;;;;;;1.67;1.58;;;;;;;6.92;76.73;98834.59;4332901;33;35633;-89
2020/12/10 01:11:50;;;;;;;4.62;2.62;;;;;;;6.91;77.43;98838.22;4333072;33;34974;-89
2020/12/10 01:14:20;;;;;;;5.20;2.05;;;;;;;6.95;77.34;98831.69;4320605;33;32979;-89
2020/12/10 01:17:01;;;;;;;1.10;0.90;;;;;;;6.86;77.61;98832.53;4333853;33;33371;-88
2020/12/10 01:19:29;;;;;;;6.10;2.58;;;;;;;6.74;77.88;98828.41;4332699;33;35315;-88
2020/12/10 01:21:56;;;;;;;4.60;2.42;;;;;;;6.96;77.00;98827.19;4320749;33;33325;-89
2020/12/10 01:24:23;;;;;;;2.22;1.73;;;;;;;6.94;77.11;98816.78;4332793;33;33520;-89
2020/12/10 01:26:51;;;;;;;4.72;2.67;;;;;;;6.92;77.29;98810.78;4333906;33;33560;-89
2020/12/10 01:29:18;;;;;;;3.20;2.97;;;;;;;6.91;77.47;98810.97;4320816;33;34884;-86
2020/12/10 01:31:49;;;;;;;3.08;2.55;;;;;;;7.00;76.89;98807.44;4333225;33;34188;-87
2020/12/10 01:34:26;;;;;;;2.60;2.40;;;;;;;7.08;76.42;98795.13;4333272;33;33308;-89
2020/12/10 01:37:11;;;;;;;2.40;1.85;;;;;;;6.99;76.48;98798.66;4322571;33;34632;-89
2020/12/10 01:39:39;;;;;;;2.85;2.42;;;;;;;6.93;77.11;98795.78;4320584;33;34969;-89
2020/12/10 01:42:06;;;;;;;1.85;1.75;;;;;;;7.31;75.59;98791.13;4320512;33;34263;-89
2020/12/10 01:44:41;;;;;;;0.95;0.93;;;;;;;7.24;75.55;98789.22;4321286;33;33184;-89
2020/12/10 01:47:12;;;;;;;3.37;2.08;;;;;;;7.08;75.94;98781.09;4320602;33;33624;-88
2020/12/10 01:49:48;;;;;;;3.05;2.85;;;;;;;7.23;75.72;98774.31;4321600;33;34856;-88
2020/12/10 01:52:15;;;;;;;3.87;2.78;;;;;;;7.17;75.41;98773.09;4332866;33;34063;-88
2020/12/10 01:54:43;;;;;;;2.90;2.00;;;;;;;7.12;76.38;98772.72;4332707;33;33053;-88
2020/12/10 01:57:10;;;;;;;2.37;2.05;;;;;;;7.08;76.10;98771.34;4332892;33;33732;-89
2020/12/10 01:59:38;;;;;;;;;;;;;;;7.32;75.20;98768.13;4320382;33;35688;-89
2020/12/10 02:02:05;;;;;;;2.37;2.17;;;;;;;7.32;75.26;98763.69;4332703;33;34475;-89
2020/12/10 02:04:36;;;;;;;4.22;1.75;;;;;;;7.07;76.10;98761.75;4308751;33;33217;-89
2020/12/10 02:07:04;;;;;;;4.68;2.85;;;;;;;7.14;76.07;98767.28;4333994;33;33713;-87
2020/12/10 02:09:31;;;;;;;1.15;1.12;;;;;;;7.21;75.64;98760.41;4320116;33;34834;-88
2020/12/10 02:11:59;;;;;;;1.92;1.20;;;;;;;7.05;76.43;98758.44;4320365;33;33032;-88
2020/12/10 02:14:37;;;;;;;2.95;1.98;;;;;;;7.07;76.16;98769.69;4331788;33;33365;-89
2020/12/10 02:17:06;;;;;;;1.85;1.60;;;;;;;7.02;76.42;98749.94;4332503;33;32914;-89
2020/12/10 02:19:34;;;;;;;2.53;1.80;;;;;;;6.89;77.06;98754.75;4320020;33;34617;-89
2020/12/10 02:22:04;;;;;;;4.18;1.83;;;;;;;7.08;76.05;98747.53;4308617;33;34135;-88
2020/12/10 02:24:31;;;;;;;4.70;1.85;;;;;;;6.77;76.72;98740.03;4331914;33;32486;-88
2020/12/10 02:26:59;;;;;;;0.93;0.93;;;;;;;7.05;75.97;98736.41;4308014;33;33805;-91
2020/12/10 02:29:26;;;;;;;3.00;2.00;;;;;;;7.10;75.41;98731.53;4320634;33;34899;-88
2020/12/10 02:31:54;;;;;;;2.50;1.85;;;;;;;6.83;76.41;98724.47;4331908;33;34021;-88
2020/12/10 02:34:21;;;;;;;2.03;1.92;;;;;;;6.97;75.76;98726.59;4319998;33;33121;-89
2020/12/10 02:36:48;;;;;;;7.82;2.35;;;;;;;7.00;75.50;98720.19;4332146;33;33898;-88
2020/12/10 02:39:16;;;;;;;3.70;1.62;;;;;;;7.04;75.39;98719.75;4320839;33;34845;-89
2020/12/10 02:41:46;;;;;;;2.35;2.15;;;;;;;6.95;75.83;98715.34;4331888;33;34903;-88
2020/12/10 02:44:13;;;;;;;2.05;1.90;;;;;;;7.37;74.03;98710.34;4313769;33;32212;-89
2020/12/10 02:46:40;;;;;;;1.80;1.57;;;;;;;7.39;74.07;98711.00;4332622;33;33967;-89
2020/12/10 02:49:09;;;;;;;3.05;1.92;;;;;;;7.37;74.14;98703.22;4332212;33;34661;-88
2020/12/10 02:51:36;;;;;;;2.83;2.62;;;;;;;7.32;74.36;98704.66;4343813;33;34079;-89
2020/12/10 02:54:03;;;;;;;2.80;2.47;;;;;;;7.46;73.70;98701.50;4332788;33;34318;-88
2020/12/10 02:56:31;;;;;;;2.15;2.05;;;;;;;7.27;74.39;98694.53;4332400;33;33563;-89
2020/12/10 02:58:58;;;;;;;1.45;1.35;;;;;;;7.46;73.70;98681.16;4307546;33;33553;-88
2020/12/10 03:01:26;;;;;;;3.17;2.97;;;;;;;7.40;73.76;98687.06;4331018;33;33082;-89
2020/12/10 03:03:54;;;;;;;3.42;3.00;;;;;;;7.20;74.80;98687.34;4320166;33;34002;-89
2020/12/10 03:06:21;;;;;;;1.45;1.10;;;;;;;7.34;74.04;98682.34;4332359;33;32537;-89
2020/12/10 03:08:48;;;;;;;5.65;2.22;;;;;;;7.46;73.82;98678.50;4331881;33;35581;-88
2020/12/10 03:11:15;;;;;;;5.30;2.83;;;;;;;7.30;74.56;98675.72;4319048;33;33529;-88
2020/12/10 03:13:42;;;;;;;1.75;1.58;;;;;;;7.59;73.67;98683.41;4333079;33;33870;-88
2020/12/10 03:16:09;;;;;;;1.62;1.52;;;;;;;7.57;73.83;98680.91;4332071;33;33676;-89
2020/12/10 03:18:37;;;;;;;5.70;1.75;;;;;;;7.87;72.94;98682.31;4333056;33;35662;-88
2020/12/10 03:21:04;;;;;;;1.98;1.87;;;;;;;7.84;72.78;98678.16;4330978;33;33881;-88
2020/12/10 03:23:31;;;;;;;1.58;1.48;;;;;;;8.10;71.50;98671.06;4331486;33;33353;-88
2020/12/10 03:25:59;;;;;;;2.85;1.83;;;;;;;7.90;72.16;98666.94;4332007;33;33475;-88
2020/12/10 03:28:26;;;;;;;2.33;2.20;;;;;;;7.60;73.51;98675.31;4331533;33;34863;-89
2020/12/10 03:30:53;;;;;;;2.62;2.10;;;;;;;7.72;73.33;98665.34;4331843;33;33977;-89
2020/12/10 03:33:21;;;;;;;2.83;2.42;;;;;;;7.42;74.35;98665.72;4319642;33;33057;-89
2020/12/10 03:35:48;;;;;;;2.42;1.52;;;;;;;7.55;74.33;98674.13;4332831;33;33910;-88
2020/12/10 03:38:15;;;;;;;1.93;1.07;;;;;;;7.42;74.18;98676.31;4332833;33;34581;-88
2020/12/10 03:40:43;;;;;;;2.33;2.03;;;;;;;7.33;74.72;98666.63;4319736;33;34220;-89
2020/12/10 03:43:10;;;;;;;1.80;1.50;;;;;;;7.23;75.17;98674.66;4331650;33;33750;-88
2020/12/10 03:45:38;;;;;;;;;;;;;;;7.08;75.70;98684.06;4319820;33;32683;-88
2020/12/10 03:48:06;;;;;;;5.12;1.25;;;;;;;7.24;75.10;98678.97;4319279;33;34928;-89
2020/12/10 03:50:33;;;;;;;3.03;1.85;;;;;;;6.97;75.95;98673.72;4319481;33;34903;-89
2020/12/10 03:53:00;;;;;;;1.42;1.40;;;;;;;6.97;76.42;98688.72;4331229;33;34038;-90
2020/12/10 03:55:28;;;;;;;3.85;2.00;;;;;;;6.74;77.66;98685.69;4333260;33;34440;-89
2020/12/10 03:57:55;;;;;;;4.60;3.30;;;;;;;6.61;78.34;98694.94;4333681;33;34898;-88
2020/12/10 04:00:22;;;;;;;2.08;1.98;;;;;;;6.94;77.20;98696.97;4334191;33;34482;-87
2020/12/10 04:02:49;;;;;;;5.65;2.03;;;;;;;6.96;77.11;98692.34;4333405;33;33721;-89
2020/12/10 04:05:16;;;;;;;3.97;3.67;;;;;;;7.01;77.07;98690.13;4321648;33;32425;-88
2020/12/10 04:07:43;;;;;;;2.72;0.98;;;;;;;6.95;77.04;98688.06;4333728;33;35746;-88
2020/12/10 04:10:10;;;;;;;1.80;1.55;;;;;;;7.11;76.55;98690.87;4345348;33;34399;-88
2020/12/10 04:12:37;;;;;;;2.97;2.70;;;;;;;6.71;77.73;98690.44;4345722;33;33841;-88
2020/12/10 04:15:05;;;;;;;1.73;1.62;;;;;;;6.75;77.71;98686.50;4333509;33;33974;-89
2020/12/10 04:17:32;;;;;;;1.85;1.45;;;;;;;6.84;77.34;98675.03;4333102;33;34772;-86
2020/12/10 04:19:59;;;;;;;4.72;2.85;;;;;;;7.26;75.88;98673.53;4320902;33;34231;-88
2020/12/10 04:22:27;;;;;;;;;;;;;;;7.09;76.36;98677.81;4321748;33;31925;-88
2020/12/10 04:24:54;;;;;;;0.88;0.85;;;;;;;7.26;75.70;98673.53;4345749;33;34122;-89
2020/12/10 04:27:21;;;;;;;1.90;1.55;;;;;;;6.97;76.51;98665.78;4333402;33;34708;-89
2020/12/10 04:29:50;;;;;;;1.17;1.12;;;;;;;7.00;76.84;98670.75;4333027;33;33466;-88
2020/12/10 04:32:17;;;;;;;1.92;1.80;;;;;;;7.11;76.46;98660.00;4320512;33;31608;-89
2020/12/10 04:34:44;;;;;;;2.62;2.40;;;;;;;7.36;75.92;98659.22;4308572;33;32844;-89
2020/12/10 04:37:11;;;;;;;2.67;2.30;;;;;;;7.62;74.34;98670.69;4308862;33;34898;-89
2020/12/10 04:39:50;;;;;;;3.08;1.90;;;;;;;7.41;75.16;98670.19;4333767;33;34949;-89
2020/12/10 04:42:19;;;;;;;2.00;1.90;;;;;;;7.44;74.89;98669.06;4320679;33;32534;-89
2020/12/10 04:44:46;;;;;;;6.85;3.55;;;;;;;7.41;74.77;98662.25;4321325;33;33215;-89
2020/12/10 04:47:14;;;;;;;1.15;0.98;;;;;;;6.90;76.03;98656.78;4332861;33;34937;-88
2020/12/10 04:49:42;;;;;;;1.75;1.58;;;;;;;7.01;76.26;98661.84;4333256;33;34138;-88
2020/12/10 04:52:10;;;;;;;2.37;2.28;;;;;;;6.79;76.99;98667.56;4332824;33;33081;-87
2020/12/10 04:54:39;;;;;;;5.30;1.67;;;;;;;6.98;76.16;98659.50;4333032;33;33612;-89
2020/12/10 04:57:09;;;;;;;0.80;0.80;;;;;;;6.77;77.10;98658.94;4309034;33;35271;-88
2020/12/10 04:59:36;;;;;;;1.70;1.60;;;;;;;6.79;76.90;98664.91;4333391;33;35106;-88
2020/12/10 05:02:09;;;;;;;1.20;1.10;;;;;;;6.68;77.37;98666.91;4320826;33;32214;-89
2020/12/10 05:04:36;;;;;;;2.03;1.15;;;;;;;6.55;77.60;98669.94;4320681;33;34455;-90
2020/12/10 05:07:04;;;;;;;2.85;2.65;;;;;;;6.64;77.61;98666.38;4320656;33;34454;-89
2020/12/10 05:09:32;;;;;;;1.90;1.80;;;;;;;6.80;76.85;98666.56;4333528;33;34655;-89
2020/12/10 05:11:59;;;;;;;2.30;2.10;;;;;;;6.78;76.67;98675.63;4319753;33;34136;-89
2020/12/10 05:14:31;;;;;;;;;;;;;;;6.60;77.54;98669.50;4318858;33;32860;-88
2020/12/10 05:17:10;;;;;;;5.47;3.03;;;;;;;6.54;77.93;98667.44;4332512;33;35016;-88
2020/12/10 05:19:37;;;;;;;3.20;1.10;;;;;;;6.65;77.66;98672.50;4332205;33;34050;-87
2020/12/10 05:22:06;;;;;;;1.27;1.20;;;;;;;6.65;77.72;98670.72;4332792;33;31920;-89
2020/12/10 05:24:34;;;;;;;1.25;1.17;;;;;;;6.71;77.32;98677.22;4332502;33;33594;-89
2020/12/10 05:27:21;;;;;;;1.65;1.33;;;;;;;6.81;77.13;98678.00;4345227;33;34781;-88
2020/12/10 05:29:50;;;;;;;3.40;3.20;;;;;;;6.78;77.30;98670.34;4308764;33;33061;-88
2020/12/10 05:32:28;;;;;;;1.55;1.40;;;;;;;6.87;76.98;98678.22;4337145;33;33955;-89
2020/12/10 05:34:56;;;;;;;1.83;1.05;;;;;;;6.47;77.96;98661.06;4337791;33;34432;-88
2020/12/10 05:37:28;;;;;;;2.33;1.60;;;;;;;6.81;77.10;98672.72;4331610;33;34858;-89
2020/12/10 05:40:00;;;;;;;0.82;0.82;;;;;;;6.73;77.62;98662.03;4331953;33;34312;-89
2020/12/10 05:42:41;;;;;;;1.95;1.85;;;;;;;6.79;77.32;98669.38;4320454;33;31726;-89
2020/12/10 05:45:21;;;;;;;1.00;1.00;;;;;;;6.91;76.64;98674.28;4336222;33;32125;-87
2020/12/10 05:47:59;;;;;;;1.93;1.47;;;;;;;6.65;77.60;98672.50;4322845;33;34755;-90
2020/12/10 05:50:28;;;;;;;3.95;3.08;;;;;;;6.95;76.39;98667.75;4308501;33;33209;-88
2020/12/10 05:53:11;;;;;;;1.83;1.73;;;;;;;6.74;77.50;98667.19;4322758;33;33155;-88
2020/12/10 05:55:44;;;;;;;3.28;2.08;;;;;;;6.73;77.34;98667.31;4332706;33;33567;-89
2020/12/10 05:58:12;;;;;;;2.08;1.58;;;;;;;6.72;77.22;98668.31;4308079;33;34799;-89
2020/12/10 06:00:39;;;;;;;;;;;;;;;6.60;77.28;98669.50;4336335;33;33938;-89
2020/12/10 06:03:09;;;;;;;3.67;2.42;;;;;;;6.24;78.48;98673.78;4310572;33;33378;-90
2020/12/10 06:05:38;;;;;;;3.28;3.05;;;;;;;6.20;78.33;98671.59;4319814;33;32565;-89
2020/12/10 06:08:09;;;;;;;1.70;1.58;;;;;;;6.29;78.17;98670.72;4332542;33;35544;-87
2020/12/10 06:10:38;;;;;;;5.78;2.95;;;;;;;6.34;77.14;98664.03;4320868;33;32877;-89
2020/12/10 06:13:06;;;;;;;1.55;1.45;;;;;;;6.38;77.45;98669.84;4315769;33;34236;-89
2020/12/10 06:15:34;;;;;;;3.72;2.65;;;;;;;6.19;77.87;98673.41;4320496;33;32488;-89
2020/12/10 06:18:15;;;;;;;2.35;0.50;;;;;;;6.05;78.07;98676.50;4319273;33;34779;-90
2020/12/10 06:20:47;;;;;;;0.80;0.80;;;;;;;5.68;78.96;98680.84;4332418;33;34101;-89
2020/12/10 06:23:27;;;;;;;1.55;1.45;;;;;;;5.92;78.27;98678.62;4332451;33;32090;-89
2020/12/10 06:25:57;;;;;;;2.75;1.25;;;;;;;6.33;77.14;98682.69;4332589;33;33289;-89
2020/12/10 06:28:25;;;;;;;2.10;1.33;;;;;;;6.01;77.63;98682.19;4320578;33;35775;-90
2020/12/10 06:31:09;;;;;;;0.93;0.62;;;;;;;6.27;76.75;98689.37;4332633;33;34866;-89
2020/12/10 06:33:45;;;;;;;1.92;1.60;;;;;;;6.28;76.14;98696.31;4308215;33;31692;-89
2020/12/10 06:36:26;;;;;;;0.70;0.62;;;;;;;6.81;74.29;98699.97;4332400;33;32145;-89
2020/12/10 06:38:56;;;;;;;3.60;1.35;;;;;;;6.70;73.86;98697.50;4332641;33;35536;-88
2020/12/10 06:41:24;;;;;;;0.70;0.70;;;;;;;6.34;75.33;98705.47;4332355;33;34202;-89
2020/12/10 06:43:52;;;;;;;0.95;0.90;;;;;;;6.43;74.81;98704.59;4320452;33;33327;-90
2020/12/10 06:46:19;;;;;;;1.08;0.88;;;;;;;6.96;72.94;98702.94;4332610;33;33730;-90
2020/12/10 06:48:48;;;;;;;0.70;0.68;;;;;;;7.06;72.31;98701.91;4332151;33;35641;-89
2020/12/10 06:51:17;;;;;;;0.35;0.32;;;;;;;7.36;71.21;98706.03;4332261;33;35056;-89
2020/12/10 06:54:01;;;;;;;0.37;0.37;;;;;;;6.58;72.40;98706.63;4331947;33;33332;-89
2020/12/10 06:56:29;;;;;;;0.50;0.50;;;;;;;6.66;72.55;98703.25;4332363;33;32883;-89
2020/12/10 06:59:00;;;;;;;0.75;0.75;;;;;;;6.61;72.86;98708.16;4320327;33;34383;-89
2020/12/10 07:01:36;;;;;;;2.50;0.75;;;;;;;6.88;72.39;98710.81;4295461;33;34697;-89
2020/12/10 07:04:29;;;;;;;0.82;0.82;;;;;;;6.94;71.91;98704.91;4320603;33;33661;-89
2020/12/10 07:07:13;;;;;;;0.20;0.13;;;;;;;7.02;71.76;98708.50;4320124;33;34498;-90
2020/12/10 07:09:52;;;;;;;0.93;0.70;;;;;;;7.03;70.80;98710.16;4319304;33;33425;-88
2020/12/10 07:12:21;;;;;;;0.60;0.60;;;;;;;6.55;72.09;98706.94;4319353;33;32899;-89
2020/12/10 07:14:50;;;;;;;0.88;0.17;;;;;;;6.85;71.11;98711.06;4320165;33;32772;-89
2020/12/10 07:17:18;;;;;;;0.98;0.30;;;;;;;6.57;72.34;98704.97;4320423;33;34534;-89
2020/12/10 07:19:45;;;;;;;0.85;0.85;;;;;;;6.41;73.03;98712.66;4331905;33;34926;-89
2020/12/10 07:22:13;;;;;;;0.47;0.45;;;;;;;7.13;70.24;98718.84;4319873;33;34907;-89
2020/12/10 07:24:41;;;;;;;0.55;0.55;;;;;;;6.22;72.86;98723.28;4308138;33;32520;-90
2020/12/10 07:27:10;;;;;;;0.32;0.32;;;;;;;6.35;73.25;98726.44;4331854;33;34057;-90
2020/12/10 07:29:37;;;;;;;0.35;0.35;;;;;;;6.65;71.66;98720.06;4333191;33;34899;-89
2020/12/10 07:32:06;;;;;;;0.55;0.55;;;;;;;5.90;73.99;98728.09;4321549;33;32357;-89
2020/12/10 07:34:41;;;;;;;1.23;0.47;;;;;;;6.00;74.00;98722.78;4333749;33;34043;-90
2020/12/10 07:37:11;;;;;;;0.55;0.55;;;;;;;5.86;74.55;98725.88;4333704;33;33533;-89
2020/12/10 07:39:38;;;;;;;0.50;0.35;;;;;;;5.69;75.56;98724.72;4321881;33;33844;-90
2020/12/10 07:42:06;;;;;;;1.00;0.88;;;;;;;5.86;75.42;98724.03;4333752;33;34127;-89
2020/12/10 07:44:34;;;;;;;;;;;;;;;6.06;74.68;98724.88;4322122;33;33235;-90
2020/12/10 07:47:09;;;;;;;0.60;0.50;;;;;;;6.38;73.88;98720.03;4297591;33;32705;-89
2020/12/10 07:49:37;;;;;;;3.30;1.25;;;;;;;6.40;73.24;98724.22;4321256;33;33694;-89
2020/12/10 07:52:11;;;;;;;2.40;1.50;;;;;;;6.32;73.10;98717.97;4333795;33;34215;-90
2020/12/10 07:54:50;;;;;;;1.67;1.58;;;;;;;6.51;72.88;98720.56;4321529;33;33281;-90
2020/12/10 07:57:23;;;;;;;1.83;0.45;;;;;;;5.75;75.14;98725.97;4321680;33;33400;-90
2020/12/10 07:59:56;;;;;;;1.15;0.70;;;;;;;6.27;73.53;98723.72;4333613;33;33648;-90
2020/12/10 08:02:37;;;;;;;1.45;1.35;;;;;;;6.37;72.87;98723.66;4333696;33;34166;-90
2020/12/10 08:05:18;;;;;;;1.20;1.20;;;;;;;6.22;72.87;98728.56;4321441;33;33746;-90
2020/12/10 08:07:47;;;;;;;1.33;1.23;;;;;;;6.11;73.17;98733.19;4321633;33;33460;-90
2020/12/10 08:10:35;;;;;;;1.80;1.25;;;;;;;5.97;73.48;98731.00;4321656;33;35396;-90
2020/12/10 08:13:17;;;;;;;0.95;0.93;;;;;;;6.37;72.56;98747.44;4333599;33;34061;-88
2020/12/10 08:15:46;;;;;;;0.95;0.95;;;;;;;6.40;72.50;98737.41;4333489;33;33940;-90
2020/12/10 08:18:17;;;;;;;2.05;1.02;;;;;;;6.61;71.30;98742.50;4333317;33;34456;-90
2020/12/10 08:20:47;;;;;;;2.30;2.10;;;;;;;6.02;73.05;98755.12;4321496;33;33716;-89
2020/12/10 08:23:15;;;;;;;1.52;1.40;;;;;;;6.23;72.51;98756.63;4333385;33;34887;-89
2020/12/10 08:25:43;;;;;;;1.05;1.00;;;;;;;6.18;72.18;98755.41;4333452;33;33978;-90
2020/12/10 08:28:12;;;;;;;1.80;1.50;;;;;;;6.11;72.88;98762.22;4321374;33;34337;-90
2020/12/10 08:30:53;;;;;;;1.85;0.95;;;;;;;6.05;72.10;98762.81;4321336;33;35816;-90
2020/12/10 08:33:21;;;;;;;2.12;2.03;;;;;;;5.69;73.45;98766.13;4333643;33;33827;-90
2020/12/10 08:35:48;;;;;;;0.83;0.77;;;;;;;5.85;72.94;98769.88;4333438;33;33858;-89
2020/12/10 08:38:16;;;;;;;2.10;0.80;;;;;;;5.30;75.16;98776.75;4333492;33;34385;-89
2020/12/10 08:40:44;;;;;;;1.65;1.55;;;;;;;5.56;74.38;98776.09;4320416;33;35051;-90
2020/12/10 08:43:13;;;;;;;0.80;0.80;;;;;;;6.05;72.47;98770.72;4321241;33;34180;-90
2020/12/10 08:45:45;;;;;;;0.82;0.82;;;;;;;5.96;71.75;98777.66;4333091;33;32201;-90
2020/12/10 08:48:15;;;;;;;0.47;0.30;;;;;;;5.47;73.51;98775.13;4333103;33;35028;-90
2020/12/10 08:50:56;;;;;;;1.27;0.75;;;;;;;4.98;75.03;98779.59;4320969;33;34739;-90
2020/12/10 08:53:24;;;;;;;1.52;1.35;;;;;;;5.20;75.22;98786.47;4333558;33;34306;-90
2020/12/10 08:55:56;;;;;;;0.47;0.47;;;;;;;5.32;74.26;98786.22;4321302;33;33823;-90
2020/12/10 08:58:28;;;;;;;2.28;2.12;;;;;;;5.09;75.31;98794.47;4333135;33;33299;-88
2020/12/10 09:00:57;;;;;;;1.40;1.12;;;;;;;5.19;75.15;98797.97;4333405;33;34232;-88
2020/12/10 09:03:25;;;;;;;1.02;0.88;;;;;;;5.16;75.70;98799.06;4309040;33;34463;-90
2020/12/10 09:05:52;;;;;;;0.47;0.43;;;;;;;4.88;75.48;98801.59;4309121;33;34066;-90
2020/12/10 09:08:19;;;;;;;0.98;0.98;;;;;;;5.08;75.37;98792.81;4333263;33;34489;-90
2020/12/10 09:10:47;;;;;;;1.55;1.15;;;;;;;5.15;73.83;98801.84;4321369;33;34735;-89
2020/12/10 09:13:14;;;;;;;0.97;0.93;;;;;;;5.52;72.73;98796.63;4333099;33;34390;-90
2020/12/10 09:15:43;;;;;;;1.00;0.95;;;;;;;5.27;73.93;98795.50;4321248;33;33009;-90
2020/12/10 09:18:12;;;;;;;2.67;1.73;;;;;;;5.26;74.41;98799.09;4321477;33;33631;-90
2020/12/10 09:20:40;;;;;;;1.20;1.10;;;;;;;4.93;76.10;98807.31;4320913;33;34446;-89
2020/12/10 09:23:11;;;;;;;1.42;1.33;;;;;;;5.47;74.03;98812.06;4308869;33;33479;-90
2020/12/10 09:25:39;;;;;;;1.85;0.50;;;;;;;4.62;74.66;98808.31;4332756;33;31633;-89
2020/12/10 09:28:08;;;;;;;4.47;2.20;;;;;;;4.48;76.41;98808.62;4333115;33;32685;-90
2020/12/10 09:30:37;;;;;;;1.08;1.02;;;;;;;4.87;75.26;98813.09;4332225;33;33162;-90
2020/12/10 09:33:08;;;;;;;2.08;1.98;;;;;;;4.97;74.75;98806.06;4332416;33;33047;-90
2020/12/10 09:35:35;;;;;;;2.10;2.00;;;;;;;5.07;73.81;98804.34;4320727;33;32712;-89
2020/12/10 09:38:03;;;;;;;2.07;1.97;;;;;;;4.68;75.41;98805.13;4331944;33;32374;-90
2020/12/10 09:40:32;;;;;;;1.40;1.17;;;;;;;5.04;73.91;98802.78;4321124;33;34241;-89
2020/12/10 09:42:59;;;;;;;2.72;1.27;;;;;;;4.95;75.03;98794.84;4319634;33;34039;-89
2020/12/10 09:45:26;;;;;;;2.70;2.10;;;;;;;5.15;74.28;98799.19;4331958;33;33461;-90
2020/12/10 09:47:54;;;;;;;6.72;3.50;;;;;;;5.01;75.32;98810.13;4344131;33;33529;-92
2020/12/10 09:50:25;;;;;;;2.80;2.60;;;;;;;5.19;74.13;98801.44;4313559;33;35766;-90
2020/12/10 09:53:02;;;;;;;1.40;1.35;;;;;;;5.68;72.12;98798.75;4328275;33;35110;-92
2020/12/10 09:58:16;;;;;;;1.48;1.37;;;;;;;5.78;72.08;98794.31;4332712;33;34306;-92
2020/12/10 10:00:48;;;;;;;4.97;2.92;;;;;;;5.42;73.58;98802.03;4333196;33;34953;-89
2020/12/10 10:03:18;;;;;;;3.37;3.03;;;;;;;5.15;74.22;98792.13;4318690;33;32866;-91
2020/12/10 10:05:54;;;;;;;;;;;;;;;5.32;73.59;98795.91;4321626;33;32599;-92
2020/12/10 10:08:23;;;;;;;3.60;3.00;;;;;;;5.64;72.01;98798.19;4320469;33;34106;-92
2020/12/10 10:10:51;;;;;;;2.60;2.40;;;;;;;5.38;73.25;98798.03;4332774;33;34680;-91
2020/12/10 10:13:18;;;;;;;0.67;0.67;;;;;;;4.98;74.84;98808.59;4332026;33;33073;-90
2020/12/10 10:15:46;;;;;;;2.10;1.48;;;;;;;5.42;71.81;98804.69;4320268;33;32965;-93
2020/12/10 10:18:16;;;;;;;5.78;1.83;;;;;;;5.24;73.02;98801.03;4308275;33;33508;-91
2020/12/10 10:20:44;;;;;;;5.22;2.75;;;;;;;4.76;75.63;98797.41;4331752;33;33366;-91
2020/12/10 10:23:12;;;;;;;2.97;2.70;;;;;;;4.90;74.79;98803.13;4320084;33;34838;-91
2020/12/10 10:25:39;;;;;;;3.10;2.17;;;;;;;5.50;72.81;98800.41;4320198;33;33954;-89
2020/12/10 10:28:08;;;;;;;2.33;2.12;;;;;;;5.31;73.10;98799.53;4331928;33;32498;-91
2020/12/10 10:30:37;;;;;;;2.72;2.33;;;;;;;5.18;73.48;98794.50;4333527;33;35859;-93
2020/12/10 10:33:06;;;;;;;4.07;2.58;;;;;;;4.99;74.98;98789.16;4308150;33;34521;-92
2020/12/10 10:35:37;;;;;;;4.12;3.42;;;;;;;5.36;73.26;98789.41;4319967;33;33910;-92
2020/12/10 10:38:04;;;;;;;2.67;1.97;;;;;;;5.20;73.86;98789.09;4319864;33;32345;-91
2020/12/10 10:40:31;;;;;;;7.75;3.67;;;;;;;5.71;72.14;98782.63;4332047;33;34749;-92
2020/12/10 10:42:59;;;;;;;3.15;2.00;;;;;;;5.51;71.72;98794.16;4320118;33;32566;-92
2020/12/10 10:45:26;;;;;;;7.40;1.85;;;;;;;5.72;70.85;98798.34;4326586;33;33740;-90
2020/12/10 10:47:54;;;;;;;3.78;3.45;;;;;;;5.05;73.35;98800.97;4329538;33;32637;-91
2020/12/10 10:50:21;;;;;;;3.97;3.60;;;;;;;5.11;73.51;98795.16;4331175;33;35938;-91
2020/12/10 10:52:49;;;;;;;2.65;2.45;;;;;;;5.78;71.49;98797.78;4330828;33;34916;-91
2020/12/10 10:55:16;;;;;;;3.37;3.15;;;;;;;4.80;74.82;98797.00;4315254;33;32230;-92
2020/12/10 10:57:44;;;;;;;2.67;2.47;;;;;;;5.44;73.13;98793.03;4324353;33;33660;-91
2020/12/10 11:00:11;;;;;;;5.55;3.00;;;;;;;5.41;72.64;98789.81;4329761;33;35854;-90
2020/12/10 11:02:38;;;;;;;5.93;3.83;;;;;;;5.43;72.53;98784.25;4330583;33;34643;-89
2020/12/10 11:05:05;;;;;;;3.03;2.03;;;;;;;5.15;73.53;98791.28;4330906;33;33272;-90
2020/12/10 11:07:32;;;;;;;1.80;1.70;;;;;;;5.22;73.07;98793.28;4330970;33;34166;-90
2020/12/10 11:09:59;;;;;;;2.00;1.90;;;;;;;5.01;74.05;98787.22;4320069;33;34825;-90
2020/12/10 11:12:27;;;;;;;3.03;2.20;;;;;;;4.79;75.02;98795.34;4331990;33;34412;-93
2020/12/10 11:14:54;;;;;;;5.03;3.37;;;;;;;5.39;73.16;98783.84;4332661;33;33673;-91
2020/12/10 11:17:21;;;;;;;5.22;2.12;;;;;;;5.47;72.65;98792.75;4331345;33;32490;-90
2020/12/10 11:19:49;;;;;;;4.10;2.70;;;;;;;4.87;74.92;98792.03;4329300;33;34920;-92
2020/12/10 11:22:16;;;;;;;3.05;2.70;;;;;;;5.07;74.62;98796.41;4331502;33;34634;-91
2020/12/10 11:24:43;;;;;;;4.93;3.17;;;;;;;5.33;73.41;98803.69;4330446;33;33060;-91
2020/12/10 11:27:11;;;;;;;2.03;1.92;;;;;;;5.03;74.75;98809.03;4307158;33;31692;-92
2020/12/10 11:29:38;;;;;;;1.40;1.23;;;;;;;4.96;74.54;98807.88;4334656;33;35067;-92
2020/12/10 11:32:05;;;;;;;4.70;2.78;;;;;;;4.85;74.75;98818.53;4319195;33;35158;-91
2020/12/10 11:34:33;;;;;;;;;;;;;;;4.74;75.25;98817.78;4331616;33;33253;-92
2020/12/10 11:37:00;;;;;;;2.10;1.95;;;;;;;5.14;74.33;98826.53;4306924;33;32440;-92
2020/12/10 11:39:28;;;;;;;1.67;1.27;;;;;;;5.53;72.89;98823.84;4319644;33;34821;-93
2020/12/10 11:41:56;;;;;;;2.53;2.33;;;;;;;5.38;72.93;98817.28;4331271;33;34870;-91
2020/12/10 11:44:23;;;;;;;3.57;2.33;;;;;;;5.22;73.82;98818.78;4306131;33;31609;-93
2020/12/10 11:46:50;;;;;;;1.85;1.73;;;;;;;5.33;73.55;98821.31;4318745;33;34219;-92
2020/12/10 11:49:18;;;;;;;3.05;1.77;;;;;;;5.61;72.19;98822.19;4331064;33;32790;-91
2020/12/10 11:51:45;;;;;;;1.37;1.35;;;;;;;5.86;70.83;98818.25;4318637;33;34554;-92
2020/12/10 11:54:12;;;;;;;1.30;1.20;;;;;;;5.28;73.11;98821.72;4331767;33;33064;-91
2020/12/10 11:56:43;;;;;;;5.43;2.55;;;;;;;5.38;71.79;98824.38;4307015;33;32917;-91
2020/12/10 11:59:10;;;;;;;2.50;1.48;;;;;;;4.81;74.25;98835.56;4331477;33;35608;-91